Time;durP1;ratioP1;P1;durP2;ratioP2;P2;SDS_P1;SDS_P2;PMS_P1;PMS_P2;Temp;Humidity;BMP_temperature;BMP_pressure;BME280_temperature;BME280_humidity;BME280_pressure;Samples;Min_cycle;Max_cycle;Signal;HPM_P1;HPM_P2
2021/11/18 00:00:10;;;;;;;;;;;5.50;99.90;;;;;;5081070;28;19939;-77
2021/11/18 00:02:36;;;;;;;;;;;5.50;99.90;;;;;;5069961;28;19968;-80
2021/11/18 00:05:03;;;;;;;;;;;5.50;99.90;;;;;;5072985;28;19995;-76
2021/11/18 00:07:30;;;;;;;;;;;5.50;99.90;;;;;;5075484;28;19963;-79
2021/11/18 00:09:58;;;;;;;;;;;5.40;99.90;;;;;;5076320;28;19944;-78
2021/11/18 00:12:25;;;;;;;;;;;5.50;99.90;;;;;;5059473;28;19959;-81
2021/11/18 00:14:52;;;;;;;;;;;5.50;99.90;;;;;;5053368;28;19925;-80
2021/11/18 00:17:19;;;;;;;;;;;5.50;99.90;;;;;;5048457;28;20292;-79
2021/11/18 00:19:46;;;;;;;;;;;5.50;99.90;;;;;;5047449;28;20807;-79
2021/11/18 00:22:12;;;;;;;;;;;5.40;99.90;;;;;;5062510;28;20432;-80
2021/11/18 00:24:39;;;;;;;;;;;5.40;99.90;;;;;;5074908;28;19988;-80
2021/11/18 00:27:07;;;;;;;;;;;5.40;99.90;;;;;;5062671;28;19932;-80
2021/11/18 00:29:34;;;;;;;;;;;5.50;99.90;;;;;;5051778;28;19929;-79
2021/11/18 00:32:00;;;;;;;;;;;5.40;99.90;;;;;;5059269;28;20019;-80
2021/11/18 00:34:27;;;;;;;;;;;5.40;99.90;;;;;;5058978;28;19956;-80
2021/11/18 00:36:53;;;;;;;;;;;5.40;99.90;;;;;;5063802;28;19996;-80
2021/11/18 00:39:20;;;;;;;;;;;5.40;99.90;;;;;;5060584;28;20004;-80
2021/11/18 00:41:47;;;;;;;;;;;5.40;99.90;;;;;;5065400;28;19947;-79
2021/11/18 00:44:15;;;;;;;;;;;5.40;99.90;;;;;;5073262;28;19937;-79
2021/11/18 00:46:42;;;;;;;;;;;5.30;99.90;;;;;;5074580;28;19984;-81
2021/11/18 00:49:09;;;;;;;;;;;5.30;99.90;;;;;;5076356;28;19929;-80
2021/11/18 00:51:36;;;;;;;;;;;5.30;99.90;;;;;;5072372;28;19931;-83
2021/11/18 00:54:04;;;;;;;;;;;5.30;99.90;;;;;;5069212;28;19925;-82
2021/11/18 00:56:31;;;;;;;;;;;5.30;99.90;;;;;;5045428;28;19940;-79
2021/11/18 00:58:58;;;;;;;;;;;5.30;99.90;;;;;;5043087;28;19933;-79
2021/11/18 01:01:28;;;;;;;;;;;5.30;99.90;;;;;;5042477;28;19924;-78
2021/11/18 01:03:54;;;;;;;;;;;5.20;99.90;;;;;;5040480;28;19924;-79
2021/11/18 01:06:21;;;;;;;;;;;5.20;99.90;;;;;;5041308;28;19929;-78
2021/11/18 01:08:48;;;;;;;;;;;5.20;99.90;;;;;;5044514;28;20291;-79
2021/11/18 01:11:16;;;;;;;;;;;5.20;99.90;;;;;;5039097;28;19925;-79
2021/11/18 01:13:43;;;;;;;;;;;5.10;99.90;;;;;;5053731;28;19985;-79
2021/11/18 01:16:10;;;;;;;;;;;5.10;99.90;;;;;;5055056;28;19932;-79
2021/11/18 01:18:38;;;;;;;;;;;5.00;99.90;;;;;;5050935;28;19928;-79
2021/11/18 01:21:06;;;;;;;;;;;5.00;99.90;;;;;;5063000;28;19909;-76
2021/11/18 01:26:32;;;;;;;;;;;4.90;99.90;;;;;;5062983;28;19924;-74
2021/11/18 01:29:00;;;;;;;;;;;5.10;99.90;;;;;;5059634;28;19909;-70
2021/11/18 01:31:27;;;;;;;;;;;5.10;99.90;;;;;;5074614;28;19924;-80
2021/11/18 01:33:55;;;;;;;;;;;5.10;99.90;;;;;;5076306;28;19972;-80
2021/11/18 01:36:22;;;;;;;;;;;5.20;99.90;;;;;;5068397;28;20000;-80
2021/11/18 01:38:49;;;;;;;;;;;5.10;99.90;;;;;;5070421;28;19976;-81
2021/11/18 01:41:17;;;;;;;;;;;5.10;99.90;;;;;;5065658;28;19960;-73
2021/11/18 01:43:45;;;;;;;;;;;5.10;99.90;;;;;;5077676;28;20047;-79
2021/11/18 01:48:54;;;;;;;;;;;5.00;99.90;;;;;;5061633;22;19948;-80
2021/11/18 01:51:24;;;;;;;;;;;5.00;99.90;;;;;;4992993;28;19930;-81
2021/11/18 01:53:51;;;;;;;;;;;5.00;99.90;;;;;;4990737;28;19934;-80
2021/11/18 01:56:18;;;;;;;;;;;5.00;99.90;;;;;;4980547;28;20021;-80
2021/11/18 01:58:48;;;;;;;;;;;5.00;99.90;;;;;;4984252;28;19974;-80
2021/11/18 02:01:14;;;;;;;;;;;4.90;99.90;;;;;;4981493;28;19926;-80
2021/11/18 02:03:42;;;;;;;;;;;4.90;99.90;;;;;;4981973;28;19961;-80
2021/11/18 02:06:25;;;;;;;;;;;5.10;99.90;;;;;;4980573;28;20036;-80
2021/11/18 02:08:53;;;;;;;;;;;4.90;99.90;;;;;;4972629;28;20300;-79
2021/11/18 02:11:24;;;;;;;;;;;4.90;99.90;;;;;;4970243;28;19926;-79
2021/11/18 02:13:51;;;;;;;;;;;4.90;99.90;;;;;;4964176;28;19984;-79
2021/11/18 02:16:18;;;;;;;;;;;4.90;99.90;;;;;;4964223;28;19991;-79
2021/11/18 02:18:44;;;;;;;;;;;4.80;99.90;;;;;;4969089;28;20415;-79
2021/11/18 02:21:14;;;;;;;;;;;4.80;99.90;;;;;;4974414;28;19969;-80
2021/11/18 02:23:42;;;;;;;;;;;4.70;99.90;;;;;;4972093;28;19927;-79
2021/11/18 02:26:09;;;;;;;;;;;4.80;99.90;;;;;;4971457;28;20060;-80
2021/11/18 02:28:37;;;;;;;;;;;4.80;99.90;;;;;;4971661;28;19977;-79
2021/11/18 02:31:05;;;;;;;;;;;4.80;99.90;;;;;;4969886;28;19924;-80
2021/11/18 02:33:31;;;;;;;;;;;4.80;99.90;;;;;;4969385;28;19926;-80
2021/11/18 02:35:59;;;;;;;;;;;4.80;99.90;;;;;;4977993;28;20037;-80
2021/11/18 02:38:27;;;;;;;;;;;4.90;99.90;;;;;;4976559;28;19940;-80
2021/11/18 02:40:54;;;;;;;;;;;4.90;99.90;;;;;;4980316;28;19937;-80
2021/11/18 02:43:20;;;;;;;;;;;4.90;99.90;;;;;;4989961;28;19948;-80
2021/11/18 02:45:48;;;;;;;;;;;4.90;99.90;;;;;;4989072;28;20316;-80
2021/11/18 02:48:15;;;;;;;;;;;4.90;99.90;;;;;;4980003;28;19917;-79
2021/11/18 02:50:43;;;;;;;;;;;4.90;99.90;;;;;;4991799;28;19981;-73
2021/11/18 02:53:12;;;;;;;;;;;4.90;99.90;;;;;;4991066;28;19962;-80
2021/11/18 02:55:41;;;;;;;;;;;4.90;99.90;;;;;;4989900;28;19965;-79
2021/11/18 02:58:08;;;;;;;;;;;4.90;99.90;;;;;;4973699;28;20387;-79
2021/11/18 03:00:39;;;;;;;;;;;4.90;99.90;;;;;;4978331;28;20031;-80
2021/11/18 03:03:05;;;;;;;;;;;4.90;99.90;;;;;;4981991;28;19997;-80
2021/11/18 03:05:32;;;;;;;;;;;4.80;99.90;;;;;;4974466;28;19926;-80
2021/11/18 03:07:59;;;;;;;;;;;4.80;99.90;;;;;;4977947;28;19933;-80
2021/11/18 03:10:26;;;;;;;;;;;4.80;99.90;;;;;;4989939;28;19926;-80
2021/11/18 03:12:54;;;;;;;;;;;4.80;99.90;;;;;;4981048;28;19933;-80
2021/11/18 03:15:21;;;;;;;;;;;4.80;99.90;;;;;;4982879;28;19961;-80
2021/11/18 03:17:48;;;;;;;;;;;4.70;99.90;;;;;;4985561;28;20029;-80
2021/11/18 03:20:16;;;;;;;;;;;4.70;99.90;;;;;;4962132;28;19933;-78
2021/11/18 03:22:43;;;;;;;;;;;4.70;99.90;;;;;;4964544;28;19926;-78
2021/11/18 03:25:10;;;;;;;;;;;4.80;99.90;;;;;;4973927;28;20369;-79
2021/11/18 03:27:38;;;;;;;;;;;4.80;99.90;;;;;;4971359;28;20274;-79
2021/11/18 03:30:06;;;;;;;;;;;4.80;99.90;;;;;;4972048;28;20038;-79
2021/11/18 03:32:33;;;;;;;;;;;4.80;99.90;;;;;;4970549;28;20017;-79
2021/11/18 03:35:00;;;;;;;;;;;4.70;99.90;;;;;;4974801;28;20288;-79
2021/11/18 03:37:26;;;;;;;;;;;4.80;99.90;;;;;;4970596;28;19998;-79
2021/11/18 03:39:53;;;;;;;;;;;4.70;99.90;;;;;;4973296;28;20060;-79
2021/11/18 03:42:20;;;;;;;;;;;4.70;99.90;;;;;;4975047;28;20018;-79
2021/11/18 03:44:46;;;;;;;;;;;4.70;99.90;;;;;;4975799;28;19998;-79
2021/11/18 03:47:15;;;;;;;;;;;4.70;99.90;;;;;;4974008;28;20534;-79
2021/11/18 03:49:42;;;;;;;;;;;4.70;99.90;;;;;;4971885;28;19931;-80
2021/11/18 03:52:09;;;;;;;;;;;4.60;99.90;;;;;;4982272;28;19926;-80
2021/11/18 03:54:37;;;;;;;;;;;4.70;99.90;;;;;;4987901;28;19941;-80
2021/11/18 03:57:05;;;;;;;;;;;4.60;99.90;;;;;;4982981;28;19934;-79
2021/11/18 03:59:33;;;;;;;;;;;4.60;99.90;;;;;;4972748;28;19927;-79
2021/11/18 04:02:00;;;;;;;;;;;4.60;99.90;;;;;;4980807;28;19993;-79
2021/11/18 04:04:29;;;;;;;;;;;4.60;99.90;;;;;;4978272;28;19932;-79
2021/11/18 04:06:56;;;;;;;;;;;4.70;99.90;;;;;;4971729;28;19934;-78
2021/11/18 04:09:22;;;;;;;;;;;4.70;99.90;;;;;;4968309;28;20407;-79
2021/11/18 04:11:50;;;;;;;;;;;4.80;99.90;;;;;;4970396;28;20091;-79
2021/11/18 04:14:18;;;;;;;;;;;4.80;99.90;;;;;;4965244;28;19926;-79
2021/11/18 04:16:45;;;;;;;;;;;4.80;99.90;;;;;;4995899;28;20391;-80
2021/11/18 04:19:12;;;;;;;;;;;4.80;99.90;;;;;;4988564;28;19986;-80
2021/11/18 04:21:41;;;;;;;;;;;4.80;99.90;;;;;;4983343;28;19993;-81
2021/11/18 04:24:08;;;;;;;;;;;4.80;99.90;;;;;;4988540;28;19936;-80
2021/11/18 04:26:35;;;;;;;;;;;4.80;99.90;;;;;;4988616;28;20012;-80
2021/11/18 04:29:02;;;;;;;;;;;4.80;99.90;;;;;;5004467;28;19937;-80
2021/11/18 04:31:30;;;;;;;;;;;4.90;99.90;;;;;;4984947;28;19989;-80
2021/11/18 04:33:56;;;;;;;;;;;4.90;99.90;;;;;;4987468;28;19937;-81
2021/11/18 04:36:23;;;;;;;;;;;4.90;99.90;;;;;;4985213;28;19973;-81
2021/11/18 04:38:52;;;;;;;;;;;4.90;99.90;;;;;;4990776;28;19986;-80
2021/11/18 04:41:19;;;;;;;;;;;5.00;99.90;;;;;;4988267;28;19917;-80
2021/11/18 04:43:46;;;;;;;;;;;5.00;99.90;;;;;;4994332;28;19938;-77
2021/11/18 04:46:14;;;;;;;;;;;5.00;99.90;;;;;;4990031;28;19985;-80
2021/11/18 04:48:41;;;;;;;;;;;5.00;99.90;;;;;;5000864;28;19926;-80
2021/11/18 04:51:09;;;;;;;;;;;4.90;99.90;;;;;;4983818;28;19910;-80
2021/11/18 04:53:36;;;;;;;;;;;4.90;99.90;;;;;;4984560;28;20025;-80
2021/11/18 04:56:05;;;;;;;;;;;4.90;99.90;;;;;;4989055;28;19946;-80
2021/11/18 04:58:32;;;;;;;;;;;4.90;99.90;;;;;;4986743;28;19933;-79
2021/11/18 05:00:59;;;;;;;;;;;4.90;99.90;;;;;;4982945;28;20452;-81
2021/11/18 05:03:28;;;;;;;;;;;4.90;99.90;;;;;;4992738;28;19910;-81
2021/11/18 05:05:55;;;;;;;;;;;4.80;99.90;;;;;;5008225;28;19971;-81
2021/11/18 05:08:21;;;;;;;;;;;4.80;99.90;;;;;;5000159;28;19989;-75
2021/11/18 05:10:50;;;;;;;;;;;4.80;99.90;;;;;;4982838;28;20017;-80
2021/11/18 05:13:18;;;;;;;;;;;4.80;99.90;;;;;;4998041;28;19926;-80
2021/11/18 05:15:47;;;;;;;;;;;4.80;99.90;;;;;;4981242;28;19987;-81
2021/11/18 05:18:14;;;;;;;;;;;4.80;99.90;;;;;;4981707;28;19973;-79
2021/11/18 05:20:42;;;;;;;;;;;4.80;99.90;;;;;;4968067;28;19933;-80
2021/11/18 05:23:10;;;;;;;;;;;4.70;99.90;;;;;;4971311;28;20027;-78
2021/11/18 05:25:38;;;;;;;;;;;4.80;99.90;;;;;;4975507;28;19982;-80
2021/11/18 05:28:05;;;;;;;;;;;4.80;99.90;;;;;;4970339;28;19934;-80
2021/11/18 05:30:34;;;;;;;;;;;4.70;99.90;;;;;;4980576;28;19922;-80
2021/11/18 05:33:01;;;;;;;;;;;4.70;99.90;;;;;;4982025;28;20006;-80
2021/11/18 05:35:29;;;;;;;;;;;4.70;99.90;;;;;;4993825;28;19926;-80
2021/11/18 05:37:56;;;;;;;;;;;4.70;99.90;;;;;;4984840;28;20026;-80
2021/11/18 05:40:23;;;;;;;;;;;4.70;99.90;;;;;;4990316;28;19914;-79
2021/11/18 05:42:50;;;;;;;;;;;4.80;99.90;;;;;;4984503;28;19958;-79
2021/11/18 05:45:19;;;;;;;;;;;4.70;99.90;;;;;;4983924;28;20025;-80
2021/11/18 05:47:47;;;;;;;;;;;4.70;99.90;;;;;;4988023;28;19948;-79
2021/11/18 05:50:15;;;;;;;;;;;4.70;99.90;;;;;;4992718;28;19989;-80
2021/11/18 05:52:43;;;;;;;;;;;4.70;99.90;;;;;;4985810;28;19974;-75
2021/11/18 05:55:10;;;;;;;;;;;4.70;99.90;;;;;;4957243;28;19962;-75
2021/11/18 05:57:37;;;;;;;;;;;4.60;99.90;;;;;;4964788;28;20377;-74
2021/11/18 06:00:05;;;;;;;;;;;4.70;99.90;;;;;;4953720;28;19926;-75
2021/11/18 06:02:31;;;;;;;;;;;4.70;99.90;;;;;;4961421;28;19926;-75
2021/11/18 06:04:59;;;;;;;;;;;4.60;99.90;;;;;;4958857;28;19930;-74
2021/11/18 06:07:26;;;;;;;;;;;4.70;99.90;;;;;;4963592;28;19926;-75
2021/11/18 06:09:53;;;;;;;;;;;4.60;99.90;;;;;;4958575;28;19937;-75
2021/11/18 06:12:20;;;;;;;;;;;4.60;99.90;;;;;;4957891;28;19930;-75
2021/11/18 06:14:46;;;;;;;;;;;4.60;99.90;;;;;;4977882;28;19930;-75
2021/11/18 06:17:13;;;;;;;;;;;4.50;99.90;;;;;;4993710;28;20296;-76
2021/11/18 06:19:40;;;;;;;;;;;4.60;99.90;;;;;;4959164;28;19926;-76
2021/11/18 06:22:08;;;;;;;;;;;4.60;99.90;;;;;;4974683;28;19933;-75
2021/11/18 06:24:34;;;;;;;;;;;4.50;99.90;;;;;;4964739;28;20025;-77
2021/11/18 06:27:01;;;;;;;;;;;4.60;99.90;;;;;;4964813;28;19930;-76
2021/11/18 06:29:30;;;;;;;;;;;4.50;99.90;;;;;;4970423;28;19965;-76
2021/11/18 06:31:57;;;;;;;;;;;4.60;99.90;;;;;;4965296;28;20034;-75
2021/11/18 06:34:24;;;;;;;;;;;4.60;99.90;;;;;;4964185;28;19926;-78
2021/11/18 06:36:52;;;;;;;;;;;4.60;99.90;;;;;;4964130;28;20029;-78
2021/11/18 06:39:21;;;;;;;;;;;4.60;99.90;;;;;;4996896;28;19941;-78
2021/11/18 06:41:48;;;;;;;;;;;4.60;99.90;;;;;;4983553;28;19934;-78
2021/11/18 06:44:15;;;;;;;;;;;4.60;99.90;;;;;;4963028;28;19926;-78
2021/11/18 06:46:42;;;;;;;;;;;4.60;99.90;;;;;;4974450;28;19933;-78
2021/11/18 06:49:09;;;;;;;;;;;4.50;99.90;;;;;;4998492;28;20029;-78
2021/11/18 06:51:38;;;;;;;;;;;4.50;99.90;;;;;;4963955;28;19964;-78
2021/11/18 06:54:05;;;;;;;;;;;4.50;99.90;;;;;;4976309;28;19987;-75
2021/11/18 06:56:33;;;;;;;;;;;4.60;99.90;;;;;;4959198;28;19926;-76
2021/11/18 06:59:00;;;;;;;;;;;4.50;99.90;;;;;;4960984;28;20370;-74
2021/11/18 07:01:27;;;;;;;;;;;4.50;99.90;;;;;;4959569;28;20333;-77
2021/11/18 07:03:54;;;;;;;;;;;4.50;99.90;;;;;;4959022;28;19933;-76
2021/11/18 07:06:22;;;;;;;;;;;4.60;99.90;;;;;;4967804;28;19933;-74
2021/11/18 07:08:48;;;;;;;;;;;4.50;99.90;;;;;;4981014;28;19930;-74
2021/11/18 07:11:17;;;;;;;;;;;4.50;99.90;;;;;;4970316;28;20025;-77
2021/11/18 07:13:46;;;;;;;;;;;4.60;99.90;;;;;;4970396;28;19937;-79
2021/11/18 07:16:14;;;;;;;;;;;4.60;99.90;;;;;;4959005;28;19934;-77
2021/11/18 07:18:41;;;;;;;;;;;4.60;99.90;;;;;;4982800;28;19927;-76
2021/11/18 07:21:08;;;;;;;;;;;4.70;99.90;;;;;;4986394;28;19981;-79
2021/11/18 07:23:36;;;;;;;;;;;4.70;99.90;;;;;;4980833;28;19930;-74
2021/11/18 07:26:04;;;;;;;;;;;4.70;99.90;;;;;;4992661;28;19980;-74
2021/11/18 07:28:32;;;;;;;;;;;4.70;99.90;;;;;;4961424;28;20024;-74
2021/11/18 07:31:01;;;;;;;;;;;4.70;99.90;;;;;;4975456;28;19973;-74
2021/11/18 07:33:28;;;;;;;;;;;4.70;99.90;;;;;;4966350;28;19926;-74
2021/11/18 07:35:55;;;;;;;;;;;4.80;99.90;;;;;;4956591;28;19927;-76
2021/11/18 07:38:23;;;;;;;;;;;4.80;99.90;;;;;;4959168;28;19933;-74
2021/11/18 07:40:50;;;;;;;;;;;4.80;99.90;;;;;;4969854;28;19924;-75
2021/11/18 07:43:19;;;;;;;;;;;4.90;99.90;;;;;;4975969;28;19933;-75
2021/11/18 07:45:46;;;;;;;;;;;4.90;99.90;;;;;;4967066;28;19949;-77
2021/11/18 07:48:14;;;;;;;;;;;4.90;99.90;;;;;;4971579;28;20304;-74
2021/11/18 07:50:40;;;;;;;;;;;5.00;99.90;;;;;;4970510;28;19934;-74
2021/11/18 07:53:07;;;;;;;;;;;5.00;99.90;;;;;;5011005;28;19935;-74
2021/11/18 07:55:34;;;;;;;;;;;5.10;99.90;;;;;;4964664;28;19961;-77
2021/11/18 07:58:00;;;;;;;;;;;5.10;99.90;;;;;;4967562;28;19941;-76
2021/11/18 08:00:27;;;;;;;;;;;5.20;99.90;;;;;;4968938;28;19949;-76
2021/11/18 08:02:54;;;;;;;;;;;5.20;99.90;;;;;;5009888;28;19926;-77
2021/11/18 08:05:23;;;;;;;;;;;5.30;99.90;;;;;;4962216;28;19926;-77
2021/11/18 08:07:50;;;;;;;;;;;5.30;99.90;;;;;;4963341;28;19927;-77
2021/11/18 08:10:17;;;;;;;;;;;5.40;99.90;;;;;;4975261;28;19934;-77
2021/11/18 08:12:43;;;;;;;;;;;5.50;99.90;;;;;;4981570;28;20263;-78
2021/11/18 08:15:11;;;;;;;;;;;5.60;99.90;;;;;;4961945;28;19932;-77
2021/11/18 08:17:38;;;;;;;;;;;5.90;99.90;;;;;;4958677;28;19927;-77
2021/11/18 08:20:06;;;;;;;;;;;6.20;99.90;;;;;;4955546;28;20267;-78
2021/11/18 08:22:34;;;;;;;;;;;6.30;99.90;;;;;;4976580;28;19926;-79
2021/11/18 08:25:01;;;;;;;;;;;6.40;99.90;;;;;;4962813;28;19930;-76
2021/11/18 08:27:28;;;;;;;;;;;6.60;99.90;;;;;;4971057;28;19934;-77
2021/11/18 08:29:54;;;;;;;;;;;6.80;99.90;;;;;;4967246;28;19938;-74
2021/11/18 08:32:21;;;;;;;;;;;6.90;99.90;;;;;;4983168;28;19964;-74
2021/11/18 08:34:48;;;;;;;;;;;7.20;99.90;;;;;;4957244;28;20386;-74
2021/11/18 08:37:15;;;;;;;;;;;7.50;99.90;;;;;;4961193;28;19980;-74
2021/11/18 08:39:43;;;;;;;;;;;7.80;99.90;;;;;;4960185;28;19927;-74
2021/11/18 08:42:11;;;;;;;;;;;8.10;99.90;;;;;;4980570;28;19930;-79
2021/11/18 08:44:39;;;;;;;;;;;8.40;99.90;;;;;;4964134;28;19926;-78
2021/11/18 08:47:07;;;;;;;;;;;8.80;99.90;;;;;;4967714;28;19927;-78
2021/11/18 08:49:34;;;;;;;;;;;9.10;99.90;;;;;;4966809;28;19947;-78
2021/11/18 08:52:06;;;;;;;;;;;9.50;99.90;;;;;;4985483;28;19964;-79
2021/11/18 08:54:33;;;;;;;;;;;9.70;99.90;;;;;;4969769;28;19926;-78
2021/11/18 08:57:01;;;;;;;;;;;9.00;99.90;;;;;;4963352;28;19929;-77
2021/11/18 08:59:28;;;;;;;;;;;8.30;99.90;;;;;;4988955;28;20005;-78
2021/11/18 09:01:56;;;;;;;;;;;8.50;99.90;;;;;;4964887;28;19953;-77
2021/11/18 09:04:23;;;;;;;;;;;9.00;99.90;;;;;;5015533;28;19978;-76
2021/11/18 09:06:51;;;;;;;;;;;9.30;99.90;;;;;;4962363;28;19937;-76
2021/11/18 09:09:19;;;;;;;;;;;9.20;99.90;;;;;;4958930;28;19926;-76
2021/11/18 09:11:46;;;;;;;;;;;8.80;99.90;;;;;;4964783;28;19941;-76
2021/11/18 09:14:16;;;;;;;;;;;8.50;99.90;;;;;;4976131;28;19926;-77
2021/11/18 09:16:44;;;;;;;;;;;8.10;99.90;;;;;;4962689;28;19926;-75
2021/11/18 09:19:12;;;;;;;;;;;8.00;99.90;;;;;;4982645;28;20367;-76
2021/11/18 09:21:39;;;;;;;;;;;8.00;99.90;;;;;;4971262;28;19930;-77
2021/11/18 09:24:07;;;;;;;;;;;8.00;99.90;;;;;;4976574;28;20304;-79
2021/11/18 09:26:36;;;;;;;;;;;8.00;99.90;;;;;;4979916;28;19948;-79
2021/11/18 09:29:03;;;;;;;;;;;7.90;99.90;;;;;;5014003;28;19970;-79
2021/11/18 09:31:31;;;;;;;;;;;7.90;99.90;;;;;;5009314;28;19926;-79
2021/11/18 09:33:59;;;;;;;;;;;7.90;99.90;;;;;;4969605;28;19948;-77
2021/11/18 09:36:27;;;;;;;;;;;7.90;99.90;;;;;;4953771;28;19933;-77
2021/11/18 09:38:55;;;;;;;;;;;7.90;99.90;;;;;;4971545;28;20017;-78
2021/11/18 09:41:38;;;;;;;;;;;8.00;99.90;;;;;;4976256;28;19937;-79
2021/11/18 09:44:18;;;;;;;;;;;8.20;99.90;;;;;;4977500;28;20044;-76
2021/11/18 09:47:09;;;;;;;;;;;8.20;99.90;;;;;;4957147;28;19954;-78
2021/11/18 09:49:53;;;;;;;;;;;8.20;99.90;;;;;;4955900;28;20024;-75
2021/11/18 09:52:24;;;;;;;;;;;8.30;99.90;;;;;;4954430;28;20415;-75
2021/11/18 09:54:57;;;;;;;;;;;8.30;99.90;;;;;;4966849;28;19933;-75
2021/11/18 09:57:34;;;;;;;;;;;8.30;99.90;;;;;;4958306;28;19933;-75
2021/11/18 10:00:04;;;;;;;;;;;8.30;99.90;;;;;;4956627;28;19940;-74
2021/11/18 10:02:54;;;;;;;;;;;8.30;99.90;;;;;;4958936;28;19945;-75
2021/11/18 10:05:23;;;;;;;;;;;8.40;99.90;;;;;;4984306;28;19934;-75
2021/11/18 10:07:54;;;;;;;;;;;8.50;99.90;;;;;;4991196;28;19937;-75
2021/11/18 10:10:26;;;;;;;;;;;8.60;99.90;;;;;;4964352;28;19992;-76
2021/11/18 10:12:58;;;;;;;;;;;8.60;99.90;;;;;;4961341;28;19927;-76
2021/11/18 10:15:27;;;;;;;;;;;8.60;99.90;;;;;;5003823;28;19926;-75
2021/11/18 10:17:55;;;;;;;;;;;8.60;99.90;;;;;;4969664;28;20498;-77
2021/11/18 10:20:23;;;;;;;;;;;8.70;99.90;;;;;;4956472;28;19930;-76
2021/11/18 10:22:53;;;;;;;;;;;8.80;99.90;;;;;;4963516;28;19933;-79
2021/11/18 10:25:21;;;;;;;;;;;8.90;99.90;;;;;;4987253;28;19996;-77
2021/11/18 10:27:48;;;;;;;;;;;8.90;99.90;;;;;;4965021;28;20017;-77
2021/11/18 10:30:19;;;;;;;;;;;8.90;99.90;;;;;;4976856;28;19934;-77
2021/11/18 10:33:01;;;;;;;;;;;9.00;99.90;;;;;;4958823;28;20017;-77
2021/11/18 10:35:30;;;;;;;;;;;9.10;99.90;;;;;;4983040;28;19927;-75
2021/11/18 10:38:13;;;;;;;;;;;9.10;99.90;;;;;;4959967;28;20001;-76
2021/11/18 10:40:50;;;;;;;;;;;9.20;99.90;;;;;;4954168;28;19937;-75
2021/11/18 10:43:17;;;;;;;;;;;9.30;99.90;;;;;;4963654;28;19969;-75
2021/11/18 10:45:45;;;;;;;;;;;9.50;99.90;;;;;;4974547;28;19930;-76
2021/11/18 10:48:16;;;;;;;;;;;9.50;99.90;;;;;;4992970;28;19948;-76
2021/11/18 10:50:44;;;;;;;;;;;9.60;99.90;;;;;;4977148;28;19928;-76
2021/11/18 10:53:17;;;;;;;;;;;9.70;99.90;;;;;;4961021;28;19927;-76
2021/11/18 10:55:45;;;;;;;;;;;9.70;99.90;;;;;;4978423;28;20011;-75
2021/11/18 10:58:14;;;;;;;;;;;9.70;99.90;;;;;;4979874;28;19926;-75
2021/11/18 11:00:52;;;;;;;;;;;9.80;99.90;;;;;;4978521;28;19926;-78
2021/11/18 11:03:27;;;;;;;;;;;9.80;99.90;;;;;;4971601;28;19926;-77
2021/11/18 11:06:11;;;;;;;;;;;9.80;99.90;;;;;;4974481;28;19932;-77
2021/11/18 11:08:39;;;;;;;;;;;9.90;99.90;;;;;;4957922;28;19942;-76
2021/11/18 11:11:08;;;;;;;;;;;9.90;99.90;;;;;;4968284;28;20379;-76
2021/11/18 11:13:52;;;;;;;;;;;9.90;99.90;;;;;;4972271;28;19933;-75
2021/11/18 11:16:24;;;;;;;;;;;10.10;99.90;;;;;;4984898;28;19933;-77
2021/11/18 11:18:54;;;;;;;;;;;10.10;99.90;;;;;;4964193;28;20772;-75
2021/11/18 11:21:33;;;;;;;;;;;10.10;99.90;;;;;;4975784;28;20025;-74
2021/11/18 11:24:09;;;;;;;;;;;10.10;99.90;;;;;;4991060;28;19930;-77
2021/11/18 11:26:50;;;;;;;;;;;10.20;99.90;;;;;;4972618;28;20020;-76
2021/11/18 11:29:23;;;;;;;;;;;10.30;99.90;;;;;;4968803;28;19926;-77
2021/11/18 11:31:56;;;;;;;;;;;10.30;99.90;;;;;;4964117;28;19980;-80
2021/11/18 11:34:35;;;;;;;;;;;10.40;99.90;;;;;;4965745;28;20357;-74
2021/11/18 11:37:08;;;;;;;;;;;10.50;99.90;;;;;;5003819;28;19928;-73
2021/11/18 11:39:38;;;;;;;;;;;10.50;99.90;;;;;;4967772;28;19926;-76
2021/11/18 11:42:34;;;;;;;;;;;10.50;99.90;;;;;;4963545;28;20307;-75
2021/11/18 11:45:07;;;;;;;;;;;10.60;99.90;;;;;;4971911;28;20262;-74
2021/11/18 11:47:51;;;;;;;;;;;10.70;99.90;;;;;;5000415;28;19926;-75
2021/11/18 11:50:22;;;;;;;;;;;10.70;99.90;;;;;;4932116;28;20403;-74
2021/11/18 11:52:54;;;;;;;;;;;10.80;99.90;;;;;;4965865;28;19926;-74
2021/11/18 11:55:29;;;;;;;;;;;10.80;99.90;;;;;;4990449;28;19948;-78
2021/11/18 11:58:00;;;;;;;;;;;10.90;99.90;;;;;;4986676;28;19933;-75
2021/11/18 12:00:32;;;;;;;;;;;10.90;99.90;;;;;;4960804;28;20704;-75
2021/11/18 12:03:08;;;;;;;;;;;10.90;99.90;;;;;;4965418;28;20352;-75
2021/11/18 12:05:38;;;;;;;;;;;10.90;99.90;;;;;;4959773;28;19957;-76
2021/11/18 12:08:08;;;;;;;;;;;10.90;99.90;;;;;;4992237;28;19944;-75
2021/11/18 12:10:39;;;;;;;;;;;11.00;99.90;;;;;;4955690;28;19926;-75
2021/11/18 12:13:14;;;;;;;;;;;11.00;99.90;;;;;;4971300;28;19931;-75
2021/11/18 12:15:43;;;;;;;;;;;11.10;99.90;;;;;;4954605;28;19945;-74
2021/11/18 12:18:13;;;;;;;;;;;11.10;99.90;;;;;;4971133;28;20025;-76
2021/11/18 12:20:40;;;;;;;;;;;11.20;99.90;;;;;;4961128;28;19927;-76
2021/11/18 12:23:08;;;;;;;;;;;11.30;99.90;;;;;;4969879;28;19933;-77
2021/11/18 12:25:41;;;;;;;;;;;11.30;99.90;;;;;;4972783;28;19926;-77
2021/11/18 12:28:19;;;;;;;;;;;11.20;99.90;;;;;;4975175;28;20249;-81
2021/11/18 12:31:05;;;;;;;;;;;11.30;99.90;;;;;;4979475;28;19973;-82
2021/11/18 12:33:42;;;;;;;;;;;11.40;99.90;;;;;;4997122;28;20484;-80
2021/11/18 12:36:11;;;;;;;;;;;11.40;99.90;;;;;;4973645;28;19930;-86
2021/11/18 12:38:40;;;;;;;;;;;11.30;99.90;;;;;;4967748;28;19948;-79
2021/11/18 12:41:13;;;;;;;;;;;11.30;99.90;;;;;;4959846;28;20402;-77
2021/11/18 12:43:46;;;;;;;;;;;11.30;99.90;;;;;;5034422;28;19930;-79
2021/11/18 12:46:19;;;;;;;;;;;11.40;99.90;;;;;;4964981;28;19930;-85
2021/11/18 12:49:06;;;;;;;;;;;11.40;99.90;;;;;;5002648;28;19931;-85
2021/11/18 12:51:42;;;;;;;;;;;11.50;99.90;;;;;;4961976;28;19936;-79
2021/11/18 12:54:30;;;;;;;;;;;11.40;99.90;;;;;;4963969;28;19926;-82
2021/11/18 12:57:14;;;;;;;;;;;11.40;99.90;;;;;;4965613;28;20443;-79
2021/11/18 12:59:46;;;;;;;;;;;11.40;99.90;;;;;;4964429;28;19993;-87
2021/11/18 13:02:14;;;;;;;;;;;11.30;99.90;;;;;;4971252;28;20331;-83
2021/11/18 13:04:45;;;;;;;;;;;11.40;99.90;;;;;;4971486;28;19926;-89
2021/11/18 13:07:32;;;;;;;;;;;11.50;99.90;;;;;;4966070;28;19926;-85
2021/11/18 13:10:32;;;;;;;;;;;11.60;99.90;;;;;;4977885;28;19926;-77
2021/11/18 13:13:19;;;;;;;;;;;11.60;99.90;;;;;;4962927;28;20031;-77
2021/11/18 13:16:04;;;;;;;;;;;11.60;99.90;;;;;;4963181;28;19926;-78
2021/11/18 13:18:46;;;;;;;;;;;11.60;99.90;;;;;;4956067;28;19927;-78
2021/11/18 13:21:15;;;;;;;;;;;11.60;99.90;;;;;;4969574;28;20423;-84
2021/11/18 13:23:53;;;;;;;;;;;11.60;99.90;;;;;;4961127;28;19934;-77
2021/11/18 13:26:21;;;;;;;;;;;11.50;99.90;;;;;;4970265;28;19933;-79
2021/11/18 13:28:56;;;;;;;;;;;11.50;99.90;;;;;;4964412;28;19930;-81
2021/11/18 13:31:24;;;;;;;;;;;11.50;99.90;;;;;;4978215;28;20404;-81
2021/11/18 13:33:51;;;;;;;;;;;11.50;99.90;;;;;;4951439;28;20335;-80
2021/11/18 13:36:24;;;;;;;;;;;11.40;99.90;;;;;;4965005;28;19932;-83
2021/11/18 13:38:54;;;;;;;;;;;11.40;99.90;;;;;;4958842;28;20013;-82
2021/11/18 13:41:31;;;;;;;;;;;11.40;99.90;;;;;;4979822;28;19926;-77
2021/11/18 13:44:00;;;;;;;;;;;11.40;99.90;;;;;;4956350;28;19970;-85
2021/11/18 13:46:29;;;;;;;;;;;11.40;99.90;;;;;;4987046;28;19930;-77
2021/11/18 13:48:58;;;;;;;;;;;11.30;99.90;;;;;;5010221;28;20397;-81
2021/11/18 13:51:32;;;;;;;;;;;11.30;99.90;;;;;;4963033;28;20593;-81
2021/11/18 13:54:00;;;;;;;;;;;11.30;99.90;;;;;;4959623;28;20300;-82
2021/11/18 13:56:35;;;;;;;;;;;11.30;99.90;;;;;;4963107;28;19926;-81
2021/11/18 13:59:06;;;;;;;;;;;11.20;99.90;;;;;;4960907;28;20278;-79
2021/11/18 14:01:35;;;;;;;;;;;11.20;99.90;;;;;;5015058;28;20268;-79
2021/11/18 14:04:08;;;;;;;;;;;11.10;99.90;;;;;;4953161;28;19926;-79
2021/11/18 14:06:36;;;;;;;;;;;11.10;99.90;;;;;;4963688;28;20377;-78
2021/11/18 14:09:05;;;;;;;;;;;11.10;99.90;;;;;;4974516;28;20399;-80
2021/11/18 14:11:33;;;;;;;;;;;11.00;99.90;;;;;;4980742;28;20019;-76
2021/11/18 14:14:01;;;;;;;;;;;11.10;99.90;;;;;;5006094;28;19926;-79
2021/11/18 14:16:30;;;;;;;;;;;11.00;99.90;;;;;;4963576;28;19927;-83
2021/11/18 14:18:59;;;;;;;;;;;11.00;99.90;;;;;;4971658;28;19927;-77
2021/11/18 14:21:30;;;;;;;;;;;11.00;99.90;;;;;;4966952;28;19930;-80
2021/11/18 14:24:02;;;;;;;;;;;11.00;99.90;;;;;;4979205;28;19927;-77
2021/11/18 14:26:37;;;;;;;;;;;11.00;99.90;;;;;;4962116;28;19932;-83
2021/11/18 14:29:28;;;;;;;;;;;10.90;99.90;;;;;;4987730;28;19940;-77
2021/11/18 14:32:02;;;;;;;;;;;10.90;99.90;;;;;;5000492;28;19931;-83
2021/11/18 14:34:32;;;;;;;;;;;10.90;99.90;;;;;;4992500;28;19936;-81
2021/11/18 14:37:00;;;;;;;;;;;10.90;99.90;;;;;;4963300;28;19937;-80
2021/11/18 14:39:31;;;;;;;;;;;10.90;99.90;;;;;;4962126;28;19926;-80
2021/11/18 14:42:00;;;;;;;;;;;10.80;99.90;;;;;;5041930;23;19935;-77
2021/11/18 14:44:31;;;;;;;;;;;10.80;99.90;;;;;;5046472;28;19925;-79